メインページ
METAR-TAF:

METAR-TAF

空港 :

ラパス, ボリビア

エル・アルト国際空港

緯度: 16-31S, 経度: 068-11W, 海抜: 4058m

現時点の気象観測

当レポートは28分前の17:00(UTC)に作成
の風 6kt
気温 15°C
湿度 13%
気圧 1035 hPa
視程10km以上
高度1700ftの雲はほとんどない

METAR: SLLP 231700Z 18006KT 9999 FEW017 15/M13 Q1035

時間: 13:28 (17:28 UTC)

予報

当レポートは7時間8分前の10:20(UTC)に作成
予報は23日の 12時(UTC)から 24日の 12時(UTC)まで有効
西/北西の風 6kt
視程10km以上
23日の 16時(UTC)から 23日の 19時(UTC)まで一時的に
高度2000ftの雲はほとんどない
24日の 01時(UTC)から 24日の 04時(UTC)まで徐々に
の風 5kt

TAF: SLLP 231020Z 2312/2412 30006KT 9999 NSC TX17/2320Z TNM04/2410Z TEMPO 2316/2319 FEW020 BECMG 2401/2404 08005KT

4,000以上の空港の気象観測と天気予報(METAR報とTAF報)

利用可能な観測所は地図上に黄色い丸と赤い丸で示す。

丸の上にカーソルを重ねると観測所名を参照できる。

次にクリックすると気象観測と天気予報を参照できる。

マップの切り替え:黒色「×」印の緑ボタンをクリックして拡大、「-」印の緑ボタンをクリックして縮小、緑色の三角印をクリックして隣りの地図に切り替え


METAR-TAF: